Time;durP1;ratioP1;P1;durP2;ratioP2;P2;SDS_P1;SDS_P2;PMS_P1;PMS_P2;Temp;Humidity;BMP_temperature;BMP_pressure;BME280_temperature;BME280_humidity;BME280_pressure;Samples;Min_cycle;Max_cycle;Signal;HPM_P1;HPM_P2
2022/08/24 00:01:02;;;;;;;1.50;1.27;;;17.20;97.30;;;;;;5057462;28;20766;-89
2022/08/24 00:03:28;;;;;;;6.50;2.13;;;17.20;97.30;;;;;;5073885;28;20461;-89
2022/08/24 00:05:54;;;;;;;3.07;1.80;;;17.10;97.30;;;;;;5057352;28;20425;-89
2022/08/24 00:08:20;;;;;;;3.97;2.00;;;17.10;97.30;;;;;;5073895;28;20317;-89
2022/08/24 00:10:46;;;;;;;2.20;2.00;;;17.10;97.30;;;;;;5073909;28;20668;-89
2022/08/24 00:13:12;;;;;;;2.60;2.40;;;17.10;97.30;;;;;;5073899;28;20456;-89
2022/08/24 00:15:38;;;;;;;2.30;2.13;;;17.10;97.30;;;;;;5073860;28;20214;-89
2022/08/24 00:18:04;;;;;;;2.53;2.10;;;17.10;97.30;;;;;;5056968;28;20453;-88
2022/08/24 00:20:30;;;;;;;3.43;3.30;;;17.00;97.30;;;;;;5074798;28;20203;-88
2022/08/24 00:22:56;;;;;;;1.80;1.77;;;17.00;97.30;;;;;;5073775;28;20929;-89
2022/08/24 00:25:22;;;;;;;1.30;1.27;;;17.00;97.30;;;;;;5056971;28;20418;-88
2022/08/24 00:27:48;;;;;;;4.23;2.70;;;17.00;97.30;;;;;;5056693;28;20262;-89
2022/08/24 00:30:16;;;;;;;2.37;2.17;;;17.00;97.30;;;;;;5056545;28;20195;-89
2022/08/24 00:32:44;;;;;;;2.20;2.00;;;17.00;97.30;;;;;;5072242;28;20175;-89
2022/08/24 00:35:10;;;;;;;7.00;2.73;;;17.00;97.30;;;;;;5073620;28;20969;-88
2022/08/24 00:37:36;;;;;;;6.60;3.20;;;16.90;97.30;;;;;;5073542;28;20422;-89
2022/08/24 00:40:10;;;;;;;2.40;2.20;;;16.90;97.30;;;;;;5056629;28;20866;-89
2022/08/24 00:42:37;;;;;;;8.83;2.50;;;16.90;97.30;;;;;;5073147;28;20163;-89
2022/08/24 00:45:05;;;;;;;5.73;1.90;;;16.90;97.30;;;;;;5073400;28;20460;-89
2022/08/24 00:47:40;;;;;;;3.30;2.57;;;16.90;97.30;;;;;;5073241;28;20555;-89
2022/08/24 00:50:09;;;;;;;8.43;2.47;;;16.80;97.30;;;;;;5074361;28;20520;-88
2022/08/24 00:52:39;;;;;;;2.93;2.67;;;16.80;97.30;;;;;;5056337;28;20428;-89
2022/08/24 00:55:14;;;;;;;1.70;1.60;;;16.80;97.30;;;;;;5056483;28;20416;-89
2022/08/24 00:57:43;;;;;;;3.87;1.73;;;16.80;97.30;;;;;;5056452;28;20412;-88
2022/08/24 01:00:34;;;;;;;2.30;1.97;;;16.80;97.30;;;;;;5056225;28;20448;-89
2022/08/24 01:03:03;;;;;;;6.80;2.10;;;16.70;97.30;;;;;;5048747;28;20417;-89
2022/08/24 01:05:31;;;;;;;3.33;2.50;;;16.70;97.30;;;;;;5056157;28;20426;-89
2022/08/24 01:07:57;;;;;;;2.13;1.97;;;16.60;97.30;;;;;;5056095;28;20830;-89
2022/08/24 01:10:26;;;;;;;2.50;2.27;;;16.60;97.30;;;;;;5056215;28;20985;-89
2022/08/24 01:12:56;;;;;;;1.63;1.53;;;16.60;97.30;;;;;;5055921;28;20867;-89
2022/08/24 01:15:22;;;;;;;1.80;1.70;;;16.50;97.30;;;;;;5056069;28;20431;-89
2022/08/24 01:20:33;;;;;;;1.80;1.43;;;16.50;97.30;;;;;;5073834;28;20778;-90
2022/08/24 01:23:28;;;;;;;4.57;3.27;;;16.50;97.30;;;;;;5055362;28;20806;-89
2022/08/24 01:25:53;;;;;;;2.90;2.40;;;16.40;97.30;;;;;;5040699;28;20414;-89
2022/08/24 01:28:20;;;;;;;9.03;2.57;;;16.40;97.30;;;;;;5055731;28;20782;-89
2022/08/24 01:30:46;;;;;;;2.90;2.30;;;16.40;97.30;;;;;;5055441;28;20345;-89
2022/08/24 01:33:22;;;;;;;3.37;2.97;;;16.40;97.30;;;;;;5055676;28;20997;-89
2022/08/24 01:35:48;;;;;;;2.97;2.70;;;16.40;97.30;;;;;;5055785;28;20167;-89
2022/08/24 01:38:16;;;;;;;2.97;2.40;;;16.30;97.30;;;;;;5055632;28;20575;-89
2022/08/24 01:40:53;;;;;;;1.77;1.77;;;16.30;97.30;;;;;;5055511;28;20962;-89
2022/08/24 01:43:19;;;;;;;6.40;4.77;;;16.30;97.30;;;;;;5055070;28;20982;-89
2022/08/24 01:45:44;;;;;;;1.70;1.60;;;16.30;97.30;;;;;;5063830;28;20463;-89
2022/08/24 01:48:11;;;;;;;2.40;1.80;;;16.30;97.30;;;;;;5095905;28;20181;-89
2022/08/24 01:50:37;;;;;;;2.73;2.27;;;16.30;97.30;;;;;;5095569;28;20288;-89
2022/08/24 01:53:05;;;;;;;1.80;1.70;;;16.20;97.30;;;;;;5095698;28;20428;-89
2022/08/24 01:58:04;;;;;;;1.87;1.77;;;16.20;97.30;;;;;;5028146;28;20463;-91
2022/08/24 02:00:29;;;;;;;3.03;2.30;;;16.20;97.30;;;;;;5013849;28;20602;-91
2022/08/24 02:02:55;;;;;;;3.80;3.10;;;16.10;97.30;;;;;;5034719;28;20419;-91
2022/08/24 02:05:23;;;;;;;2.03;1.87;;;16.10;97.30;;;;;;5030525;28;20184;-91
2022/08/24 02:07:49;;;;;;;5.77;2.00;;;16.10;97.30;;;;;;5033439;28;20819;-91
2022/08/24 02:10:18;;;;;;;3.03;2.83;;;16.10;97.30;;;;;;5050129;28;20422;-91
2022/08/24 02:12:56;;;;;;;5.30;3.47;;;16.10;97.30;;;;;;5033497;28;20418;-91
2022/08/24 02:15:32;;;;;;;2.83;1.57;;;16.10;97.30;;;;;;5033309;28;20414;-92
2022/08/24 02:17:59;;;;;;;4.37;2.53;;;16.10;97.30;;;;;;5050385;28;20418;-91
2022/08/24 02:20:25;;;;;;;2.00;1.90;;;16.10;97.30;;;;;;5050144;28;20540;-91
2022/08/24 02:23:30;;;;;;;3.80;2.43;;;16.10;97.30;;;;;;5040570;28;20423;-90
2022/08/24 02:25:55;;;;;;;5.10;2.70;;;16.20;97.30;;;;;;5043889;23;20809;-90
2022/08/24 02:28:21;;;;;;;5.23;2.60;;;16.10;97.30;;;;;;5076007;28;20401;-89
2022/08/24 02:30:47;;;;;;;4.07;2.30;;;16.10;97.30;;;;;;5094516;28;20611;-87
2022/08/24 02:33:13;;;;;;;5.70;2.90;;;16.10;97.30;;;;;;5095975;28;20881;-89
2022/08/24 02:35:40;;;;;;;1.50;1.40;;;16.00;97.30;;;;;;5095984;28;20449;-88
2022/08/24 02:38:07;;;;;;;4.87;4.57;;;16.00;97.30;;;;;;5096089;28;20178;-89
2022/08/24 02:40:33;;;;;;;2.57;2.00;;;15.90;97.30;;;;;;5096204;28;20431;-89
2022/08/24 02:42:59;;;;;;;2.70;2.23;;;15.90;97.30;;;;;;5096156;28;20844;-91
2022/08/24 02:45:24;;;;;;;1.20;1.20;;;15.90;97.30;;;;;;5096745;28;20165;-90
2022/08/24 02:47:50;;;;;;;2.57;2.40;;;15.90;97.30;;;;;;5096344;28;20201;-90
2022/08/24 02:50:17;;;;;;;2.70;2.50;;;15.90;97.30;;;;;;5095528;28;20238;-89
2022/08/24 02:52:43;;;;;;;4.47;4.17;;;15.90;97.30;;;;;;5095283;28;20689;-90
2022/08/24 02:55:13;;;;;;;2.33;2.10;;;15.90;97.30;;;;;;5097181;28;20419;-89
2022/08/24 02:57:39;;;;;;;2.47;2.27;;;15.80;97.30;;;;;;5099986;28;20209;-88
2022/08/24 03:00:09;;;;;;;2.27;1.67;;;15.80;97.30;;;;;;5099798;28;20850;-89
2022/08/24 03:02:34;;;;;;;7.10;3.23;;;15.80;97.30;;;;;;5099493;28;20423;-88
2022/08/24 03:05:00;;;;;;;2.20;2.03;;;15.80;97.30;;;;;;5099445;28;20520;-87
2022/08/24 03:07:27;;;;;;;2.60;2.03;;;15.70;97.30;;;;;;5100064;28;20182;-90
2022/08/24 03:09:52;;;;;;;3.47;1.80;;;15.70;97.30;;;;;;5099882;28;20435;-89
2022/08/24 03:12:18;;;;;;;4.10;2.27;;;15.70;97.30;;;;;;5099928;28;20923;-89
2022/08/24 03:14:44;;;;;;;2.60;2.43;;;15.70;97.30;;;;;;5099974;28;20182;-89
2022/08/24 03:17:09;;;;;;;6.37;3.37;;;15.60;97.30;;;;;;5099962;28;20268;-89
2022/08/24 03:19:35;;;;;;;4.33;3.03;;;15.60;97.30;;;;;;5099430;28;20199;-89
2022/08/24 03:22:01;;;;;;;3.60;2.10;;;15.60;97.30;;;;;;5099207;28;20677;-88
2022/08/24 03:24:26;;;;;;;2.97;2.43;;;15.60;97.30;;;;;;5098808;28;20250;-88
2022/08/24 03:26:52;;;;;;;2.73;2.10;;;15.60;97.30;;;;;;5099206;28;20225;-90
2022/08/24 03:29:17;;;;;;;2.13;1.83;;;15.60;97.30;;;;;;5099576;28;20190;-88
2022/08/24 03:31:44;;;;;;;3.83;3.00;;;15.60;97.30;;;;;;5099267;28;20201;-88
2022/08/24 03:34:12;;;;;;;2.93;2.73;;;15.60;97.30;;;;;;5099147;28;20642;-88
2022/08/24 03:36:38;;;;;;;3.10;1.73;;;15.60;97.30;;;;;;5099066;28;20498;-88
2022/08/24 03:39:04;;;;;;;4.83;2.40;;;15.50;97.30;;;;;;5099130;28;20522;-88
2022/08/24 03:41:29;;;;;;;4.30;2.63;;;15.50;97.30;;;;;;5099017;28;20446;-88
2022/08/24 03:43:55;;;;;;;7.30;3.70;;;15.50;97.30;;;;;;5098826;28;20330;-88
2022/08/24 03:46:25;;;;;;;2.50;2.07;;;15.50;97.30;;;;;;5098876;28;20177;-89
2022/08/24 03:48:53;;;;;;;3.27;2.60;;;15.50;97.30;;;;;;5098853;28;20472;-89
2022/08/24 03:51:22;;;;;;;5.30;2.83;;;15.50;97.30;;;;;;5099156;28;20408;-89
2022/08/24 03:53:48;;;;;;;4.53;3.40;;;15.50;97.30;;;;;;5099207;28;20415;-89
2022/08/24 03:56:15;;;;;;;2.30;1.97;;;15.50;97.30;;;;;;5099607;28;20820;-90
2022/08/24 03:58:41;;;;;;;7.70;2.70;;;15.50;97.30;;;;;;5100327;28;20427;-90
2022/08/24 04:01:08;;;;;;;3.23;3.07;;;15.40;97.30;;;;;;5097121;28;20415;-89
2022/08/24 04:03:42;;;;;;;2.50;2.00;;;15.40;97.30;;;;;;5100050;28;20726;-90
2022/08/24 04:06:09;;;;;;;5.57;2.33;;;15.40;97.30;;;;;;5102096;28;20419;-90
2022/08/24 04:08:35;;;;;;;3.30;2.60;;;15.40;97.30;;;;;;5099951;28;20436;-89
2022/08/24 04:11:01;;;;;;;5.40;2.50;;;15.30;97.30;;;;;;5098198;28;20434;-90
2022/08/24 04:13:30;;;;;;;2.40;2.10;;;15.30;97.30;;;;;;5097620;28;20514;-90
2022/08/24 04:16:11;;;;;;;5.33;3.20;;;15.30;97.30;;;;;;5098957;28;20411;-90
2022/08/24 04:18:37;;;;;;;2.77;2.30;;;15.30;97.30;;;;;;5098096;28;20419;-88
2022/08/24 04:21:03;;;;;;;2.60;2.37;;;15.30;97.30;;;;;;5102321;28;20423;-90
2022/08/24 04:23:29;;;;;;;2.43;2.23;;;15.30;97.30;;;;;;5102748;28;20967;-91
2022/08/24 04:26:02;;;;;;;1.80;1.70;;;15.30;97.30;;;;;;5102998;28;20494;-92
2022/08/24 04:28:52;;;;;;;2.50;2.27;;;15.30;97.30;;;;;;5103098;28;20437;-92
2022/08/24 04:31:29;;;;;;;2.13;2.00;;;15.30;97.30;;;;;;5102018;28;20420;-92
2022/08/24 04:33:56;;;;;;;7.43;3.80;;;15.30;97.30;;;;;;5087801;28;20476;-88
2022/08/24 04:36:23;;;;;;;6.67;3.03;;;15.30;97.30;;;;;;5099594;28;20461;-92
2022/08/24 04:38:52;;;;;;;3.03;2.77;;;15.30;97.30;;;;;;5110130;28;20809;-89
2022/08/24 04:41:19;;;;;;;1.80;1.70;;;15.30;97.30;;;;;;5079392;28;20504;-91
2022/08/24 04:43:46;;;;;;;2.27;2.07;;;15.30;97.30;;;;;;5079219;28;20203;-91
2022/08/24 04:46:14;;;;;;;2.57;2.37;;;15.30;97.30;;;;;;5079300;28;20412;-91
2022/08/24 04:48:41;;;;;;;2.57;2.37;;;15.30;97.30;;;;;;5077224;28;20463;-91
2022/08/24 04:51:08;;;;;;;3.20;3.00;;;15.30;97.30;;;;;;5077066;28;20941;-91
2022/08/24 04:53:35;;;;;;;2.37;2.07;;;15.30;97.30;;;;;;5077478;28;20419;-90
2022/08/24 04:56:03;;;;;;;4.90;3.20;;;15.40;97.30;;;;;;5077120;28;20458;-91
2022/08/24 04:58:29;;;;;;;5.57;2.10;;;15.40;97.30;;;;;;5043677;28;20511;-91
2022/08/24 05:00:56;;;;;;;2.73;2.43;;;15.40;97.30;;;;;;5076546;28;20489;-91
2022/08/24 05:03:22;;;;;;;7.53;2.57;;;15.50;97.30;;;;;;5076902;28;20996;-90
2022/08/24 05:05:50;;;;;;;4.97;2.97;;;15.50;97.30;;;;;;5077294;28;20487;-91
2022/08/24 05:08:18;;;;;;;3.60;3.40;;;15.50;97.30;;;;;;5077000;28;20444;-91
2022/08/24 05:10:50;;;;;;;2.37;2.10;;;15.50;97.30;;;;;;5076744;28;20427;-91
2022/08/24 05:13:16;;;;;;;2.80;2.70;;;15.60;97.30;;;;;;5076910;28;20420;-91
2022/08/24 05:15:45;;;;;;;5.00;3.30;;;15.60;97.30;;;;;;5076419;28;20405;-91
2022/08/24 05:18:12;;;;;;;3.00;2.77;;;15.60;97.30;;;;;;5076066;28;20416;-90
2022/08/24 05:20:44;;;;;;;3.20;2.20;;;15.70;97.30;;;;;;5076164;28;20432;-91
2022/08/24 05:23:11;;;;;;;2.53;2.33;;;15.70;97.30;;;;;;5094372;28;20420;-90
2022/08/24 05:25:38;;;;;;;2.73;2.23;;;15.70;97.30;;;;;;5059277;28;20796;-91
2022/08/24 05:28:04;;;;;;;4.27;3.20;;;15.80;97.30;;;;;;5076100;28;20408;-90
2022/08/24 05:30:30;;;;;;;4.37;2.90;;;15.80;97.30;;;;;;5076104;28;20428;-91
2022/08/24 05:32:55;;;;;;;5.70;2.43;;;15.90;97.30;;;;;;5076138;28;20419;-91
2022/08/24 05:35:21;;;;;;;3.70;2.73;;;15.90;97.30;;;;;;5075927;28;20219;-91
2022/08/24 05:37:46;;;;;;;6.80;4.17;;;15.90;97.30;;;;;;5076077;28;20170;-91
2022/08/24 05:40:14;;;;;;;6.30;3.30;;;16.00;97.30;;;;;;5075654;28;20195;-91
2022/08/24 05:42:40;;;;;;;4.03;3.50;;;16.00;97.30;;;;;;5075769;28;20631;-91
2022/08/24 05:45:13;;;;;;;4.33;3.43;;;16.10;97.30;;;;;;5076199;28;20460;-92
2022/08/24 05:47:38;;;;;;;9.57;4.40;;;16.10;97.30;;;;;;5059292;28;20197;-90
2022/08/24 05:50:08;;;;;;;5.13;3.23;;;16.20;97.30;;;;;;5075705;28;20428;-92
2022/08/24 05:52:34;;;;;;;5.33;3.63;;;16.20;97.30;;;;;;5059211;28;20175;-91
2022/08/24 05:55:02;;;;;;;7.87;4.97;;;16.30;97.30;;;;;;5075788;28;20417;-92
2022/08/24 05:57:33;;;;;;;11.17;5.40;;;16.30;97.30;;;;;;5075820;28;20420;-92
2022/08/24 05:59:59;;;;;;;4.90;3.33;;;16.40;97.30;;;;;;5075276;28;20454;-92
2022/08/24 06:02:25;;;;;;;9.37;4.53;;;16.50;97.30;;;;;;5075577;28;20416;-91
2022/08/24 06:04:50;;;;;;;7.00;3.83;;;16.50;97.30;;;;;;5075266;28;20459;-91
2022/08/24 06:07:17;;;;;;;6.37;4.43;;;16.60;97.30;;;;;;5075836;28;20178;-91
2022/08/24 06:09:43;;;;;;;6.40;4.40;;;16.60;97.30;;;;;;5075352;28;20228;-91
2022/08/24 06:12:11;;;;;;;8.90;4.33;;;16.70;97.30;;;;;;5074981;28;20543;-91
2022/08/24 06:14:37;;;;;;;8.53;5.53;;;16.80;97.30;;;;;;5074685;28;20425;-91
2022/08/24 06:17:07;;;;;;;6.20;3.80;;;16.90;97.30;;;;;;5074532;28;20420;-91
2022/08/24 06:19:34;;;;;;;8.40;5.27;;;16.90;97.30;;;;;;5075123;28;20692;-91
2022/08/24 06:22:00;;;;;;;6.97;4.00;;;17.00;97.30;;;;;;5092895;28;20419;-92
2022/08/24 06:27:21;;;;;;;5.20;3.27;;;17.20;97.30;;;;;;5092359;28;20893;-90
2022/08/24 06:30:00;;;;;;;9.27;4.57;;;17.20;97.30;;;;;;5074013;28;20485;-90
2022/08/24 06:32:26;;;;;;;7.40;4.70;;;17.30;97.30;;;;;;5074218;28;20816;-91
2022/08/24 06:34:55;;;;;;;14.70;6.40;;;17.40;97.30;;;;;;5074220;28;20427;-92
2022/08/24 06:37:25;;;;;;;8.37;5.40;;;17.40;97.30;;;;;;5074653;28;20528;-90
2022/08/24 06:39:54;;;;;;;6.13;4.00;;;17.50;97.30;;;;;;5074108;28;20435;-91
2022/08/24 06:42:19;;;;;;;3.93;3.67;;;17.60;97.30;;;;;;5073814;28;20507;-91
2022/08/24 06:44:45;;;;;;;5.77;4.57;;;17.70;97.30;;;;;;5074411;28;20542;-91
2022/08/24 06:47:12;;;;;;;13.07;3.30;;;17.80;97.30;;;;;;5074239;28;20175;-90
2022/08/24 06:49:37;;;;;;;6.80;4.37;;;17.80;97.30;;;;;;5074022;28;20287;-92
2022/08/24 06:52:04;;;;;;;8.50;6.50;;;17.90;97.30;;;;;;5074306;28;20489;-89
2022/08/24 06:54:30;;;;;;;4.30;4.03;;;18.00;97.30;;;;;;5074366;28;20639;-90
2022/08/24 06:56:57;;;;;;;9.60;3.87;;;18.10;97.30;;;;;;5074005;28;20420;-90
2022/08/24 06:59:27;;;;;;;5.73;4.30;;;18.20;97.30;;;;;;5074505;28;20289;-91
2022/08/24 07:01:54;;;;;;;5.10;4.50;;;18.20;97.30;;;;;;5074414;28;20408;-88
2022/08/24 07:04:21;;;;;;;15.57;5.40;;;18.30;97.30;;;;;;5074323;28;20531;-90
2022/08/24 07:06:48;;;;;;;9.40;4.37;;;18.40;97.30;;;;;;5074159;28;21027;-90
2022/08/24 07:09:15;;;;;;;5.43;3.57;;;18.50;97.30;;;;;;5073862;28;20480;-90
2022/08/24 07:11:40;;;;;;;4.07;2.87;;;18.50;97.30;;;;;;5073213;28;20426;-91
2022/08/24 07:14:06;;;;;;;5.77;3.97;;;18.60;97.30;;;;;;5073795;28;20428;-89
2022/08/24 07:16:32;;;;;;;4.87;3.63;;;18.70;97.30;;;;;;5074064;28;20550;-91
2022/08/24 07:19:00;;;;;;;4.83;3.33;;;18.80;97.30;;;;;;5073393;28;20669;-90
2022/08/24 07:21:26;;;;;;;7.00;4.33;;;18.90;97.30;;;;;;5073150;28;20428;-91
2022/08/24 07:23:57;;;;;;;4.77;2.73;;;19.00;97.30;;;;;;5073489;28;20455;-90
2022/08/24 07:26:26;;;;;;;7.50;3.10;;;19.10;97.30;;;;;;5073150;28;21009;-90
2022/08/24 07:28:54;;;;;;;5.73;3.57;;;19.20;97.30;;;;;;5073495;28;20462;-90
2022/08/24 07:31:20;;;;;;;4.03;2.90;;;19.40;97.30;;;;;;5078873;28;20920;-91
2022/08/24 07:33:46;;;;;;;7.83;4.00;;;19.40;97.30;;;;;;5093218;28;20407;-90
2022/08/24 07:36:13;;;;;;;3.93;3.40;;;19.60;97.30;;;;;;5093464;28;20181;-90
2022/08/24 07:38:39;;;;;;;2.80;2.60;;;19.70;97.30;;;;;;5093417;28;20458;-89
2022/08/24 07:41:05;;;;;;;5.93;3.80;;;19.80;97.30;;;;;;5094889;28;20454;-90
2022/08/24 07:43:30;;;;;;;6.93;4.20;;;19.90;97.30;;;;;;5096991;28;20205;-89
2022/08/24 07:45:56;;;;;;;6.50;3.80;;;20.10;97.30;;;;;;5096984;28;20199;-90
2022/08/24 07:48:21;;;;;;;6.97;2.73;;;20.10;97.30;;;;;;5096617;28;20269;-90
2022/08/24 07:50:47;;;;;;;4.10;2.90;;;20.20;97.30;;;;;;5096814;28;20670;-90
2022/08/24 07:53:13;;;;;;;4.00;3.30;;;20.30;97.30;;;;;;5096824;28;20185;-90
2022/08/24 07:58:22;;;;;;;3.70;2.60;;;20.50;97.30;;;;;;5062580;28;20494;-82
2022/08/24 08:00:48;;;;;;;3.67;2.90;;;20.60;97.30;;;;;;5064980;28;20431;-82
2022/08/24 08:03:13;;;;;;;4.47;2.90;;;20.70;97.30;;;;;;5046465;28;20176;-82
2022/08/24 08:05:40;;;;;;;2.70;2.50;;;20.70;97.30;;;;;;5046204;28;20529;-82
2022/08/24 08:08:06;;;;;;;3.70;2.27;;;20.80;97.30;;;;;;5046163;28;20171;-81
2022/08/24 08:10:34;;;;;;;5.43;3.93;;;20.90;97.30;;;;;;5046419;28;20445;-82
2022/08/24 08:13:04;;;;;;;3.20;2.23;;;21.00;97.30;;;;;;5046135;28;20175;-82
2022/08/24 08:15:31;;;;;;;4.93;3.50;;;21.00;97.30;;;;;;5046196;28;20457;-82
2022/08/24 08:17:57;;;;;;;4.17;2.97;;;21.10;97.30;;;;;;5046169;28;20423;-82
2022/08/24 08:20:23;;;;;;;2.87;2.67;;;21.20;97.30;;;;;;5045962;28;20454;-82
2022/08/24 08:25:37;;;;;;;2.30;2.20;;;21.30;97.30;;;;;;5064548;28;20381;-82
2022/08/24 08:28:04;;;;;;;9.47;3.07;;;21.40;97.30;;;;;;5045494;28;20414;-82
2022/08/24 08:30:30;;;;;;;5.07;2.90;;;21.50;97.30;;;;;;5063255;28;20525;-82
2022/08/24 08:32:56;;;;;;;18.90;3.47;;;21.60;97.30;;;;;;5046240;28;20402;-82
2022/08/24 08:35:21;;;;;;;3.27;2.40;;;21.70;97.30;;;;;;5044753;28;20425;-82
2022/08/24 08:37:47;;;;;;;4.67;2.90;;;21.80;97.30;;;;;;5044440;28;20267;-82
2022/08/24 08:40:44;;;;;;;2.73;2.37;;;21.90;97.30;;;;;;5044762;28;20203;-82
2022/08/24 08:43:23;;;;;;;3.97;2.67;;;22.00;97.30;;;;;;5014662;28;20184;-82
2022/08/24 08:46:23;;;;;;;2.33;1.90;;;22.10;97.30;;;;;;5044881;28;20418;-82
2022/08/24 08:49:17;;;;;;;5.47;1.83;;;22.20;97.30;;;;;;5045166;28;20418;-83
2022/08/24 08:52:16;;;;;;;1.93;1.80;;;22.30;97.30;;;;;;5044828;28;20422;-83
2022/08/24 08:55:00;;;;;;;2.00;1.80;;;22.40;97.30;;;;;;5062274;28;20891;-82
2022/08/24 08:57:38;;;;;;;2.90;2.70;;;22.50;97.30;;;;;;5044827;28;20541;-82
2022/08/24 09:00:17;;;;;;;2.40;2.00;;;22.60;97.30;;;;;;5043952;28;20438;-82
2022/08/24 09:03:04;;;;;;;2.30;1.93;;;22.70;97.30;;;;;;5062659;28;20403;-82
2022/08/24 09:05:46;;;;;;;2.43;2.17;;;22.70;97.30;;;;;;5044955;28;20449;-82
2022/08/24 09:08:48;;;;;;;2.50;2.20;;;22.80;97.30;;;;;;5044143;28;20478;-83
2022/08/24 09:11:38;;;;;;;3.80;1.63;;;22.80;97.30;;;;;;5044893;28;20406;-82
2022/08/24 09:14:32;;;;;;;2.20;1.97;;;22.80;97.30;;;;;;5044597;28;20423;-82
2022/08/24 09:16:57;;;;;;;3.43;1.97;;;22.90;97.30;;;;;;5042716;28;20417;-82
2022/08/24 09:19:48;;;;;;;2.70;2.07;;;23.00;97.30;;;;;;5044036;28;20510;-82
2022/08/24 09:22:17;;;;;;;3.10;2.90;;;23.00;97.30;;;;;;5043489;28;20195;-82
2022/08/24 09:24:51;;;;;;;2.67;2.47;;;23.00;97.30;;;;;;5042784;28;20469;-83
2022/08/24 09:27:34;;;;;;;2.70;2.07;;;23.10;97.30;;;;;;5042602;28;20811;-82
2022/08/24 09:30:09;;;;;;;5.17;3.63;;;23.20;97.30;;;;;;5042353;28;20434;-82
2022/08/24 09:33:08;;;;;;;2.47;2.30;;;23.30;97.30;;;;;;5042999;28;20441;-82
2022/08/24 09:35:52;;;;;;;3.90;2.60;;;23.40;97.30;;;;;;5042417;28;20415;-83
2022/08/24 09:38:31;;;;;;;2.37;1.80;;;23.50;97.10;;;;;;5042698;28;20410;-82
2022/08/24 09:41:15;;;;;;;3.23;1.90;;;23.60;97.30;;;;;;5042599;28;20577;-82
2022/08/24 09:44:11;;;;;;;1.40;1.37;;;23.70;97.00;;;;;;5041441;28;20815;-82
2022/08/24 09:47:15;;;;;;;2.60;2.40;;;23.80;96.60;;;;;;5042048;28;20414;-82
2022/08/24 09:50:02;;;;;;;1.93;1.77;;;23.90;97.10;;;;;;5041634;28;20449;-83
2022/08/24 09:53:06;;;;;;;3.90;2.60;;;24.10;97.00;;;;;;5043435;28;20409;-83
2022/08/24 09:55:52;;;;;;;1.73;1.37;;;24.30;95.60;;;;;;5012001;28;20601;-82
2022/08/24 09:58:22;;;;;;;3.40;1.97;;;24.30;95.20;;;;;;5042066;28;20466;-82
2022/08/24 10:01:07;;;;;;;1.83;1.57;;;24.40;94.90;;;;;;5041188;28;20584;-82
2022/08/24 10:03:53;;;;;;;12.20;1.97;;;24.40;94.80;;;;;;5040854;28;20465;-82
2022/08/24 10:06:45;;;;;;;3.00;2.80;;;24.40;95.10;;;;;;5041539;28;20406;-82
2022/08/24 10:09:49;;;;;;;2.00;1.40;;;24.40;94.30;;;;;;5041120;28;21031;-83
2022/08/24 10:12:52;;;;;;;2.13;1.67;;;24.50;94.00;;;;;;5041105;28;20434;-82
2022/08/24 10:15:45;;;;;;;2.77;2.50;;;24.40;93.40;;;;;;5059950;28;20432;-82
2022/08/24 10:18:30;;;;;;;2.77;1.70;;;24.40;93.90;;;;;;5040755;28;20509;-82
2022/08/24 10:21:16;;;;;;;3.20;1.70;;;24.40;93.90;;;;;;5041419;28;20434;-83
2022/08/24 10:24:00;;;;;;;1.20;1.13;;;24.40;94.50;;;;;;5040782;28;21018;-82
2022/08/24 10:26:58;;;;;;;4.50;2.63;;;24.50;93.70;;;;;;5058278;28;20390;-83
2022/08/24 10:29:33;;;;;;;1.50;1.40;;;24.60;94.00;;;;;;5020792;28;20931;-82
2022/08/24 10:32:45;;;;;;;2.93;2.50;;;24.70;92.70;;;;;;5040465;28;20795;-83
2022/08/24 10:35:17;;;;;;;2.63;1.43;;;24.80;91.00;;;;;;5040283;28;20414;-82
2022/08/24 10:41:18;;;;;;;2.47;2.00;;;24.90;90.10;;;;;;5037210;28;20432;-82
2022/08/24 10:44:02;;;;;;;1.97;1.73;;;25.00;90.00;;;;;;5040921;28;20457;-82
2022/08/24 10:46:35;;;;;;;2.03;1.57;;;25.20;90.50;;;;;;5040398;28;20420;-83
2022/08/24 10:49:10;;;;;;;3.27;2.37;;;25.30;91.00;;;;;;5040927;28;20439;-82
2022/08/24 10:52:13;;;;;;;1.30;1.30;;;25.40;90.30;;;;;;5040419;28;20410;-82
2022/08/24 10:54:39;;;;;;;1.80;1.43;;;25.50;89.00;;;;;;5041058;28;20418;-82
2022/08/24 10:57:25;;;;;;;2.00;1.57;;;25.60;88.70;;;;;;5040141;28;20492;-83
2022/08/24 11:00:13;;;;;;;1.77;1.50;;;25.70;89.20;;;;;;5039763;28;20227;-83
2022/08/24 11:02:41;;;;;;;1.93;1.73;;;25.70;87.80;;;;;;5039762;28;20445;-83
2022/08/24 11:05:26;;;;;;;7.23;2.40;;;25.80;88.30;;;;;;5039745;28;20867;-82
2022/08/24 11:08:01;;;;;;;1.10;1.07;;;25.90;88.60;;;;;;5039226;28;20415;-82
2022/08/24 11:10:30;;;;;;;2.83;2.57;;;25.90;88.70;;;;;;5039753;28;20477;-83
2022/08/24 11:13:23;;;;;;;1.53;1.40;;;26.10;89.40;;;;;;5039756;28;20438;-82
2022/08/24 11:16:00;;;;;;;1.13;1.13;;;26.10;88.50;;;;;;5040960;28;20486;-83
2022/08/24 11:18:48;;;;;;;1.40;1.30;;;26.30;87.30;;;;;;5061220;28;20785;-83
2022/08/24 11:21:40;;;;;;;4.43;1.27;;;26.50;87.70;;;;;;5043127;28;20415;-83
2022/08/24 11:24:17;;;;;;;2.73;2.27;;;26.60;87.70;;;;;;5042993;28;20457;-82
2022/08/24 11:27:15;;;;;;;2.33;2.00;;;26.80;87.70;;;;;;5043409;28;20422;-82
2022/08/24 11:29:50;;;;;;;2.10;1.93;;;26.90;88.30;;;;;;5037361;28;20434;-83
2022/08/24 11:32:41;;;;;;;6.10;3.37;;;27.00;87.50;;;;;;5043692;28;20436;-83
2022/08/24 11:35:26;;;;;;;1.57;1.30;;;26.90;86.60;;;;;;5041987;28;20428;-82
2022/08/24 11:37:56;;;;;;;1.37;1.27;;;26.80;86.70;;;;;;5042707;28;20422;-82
2022/08/24 11:40:29;;;;;;;1.53;1.50;;;26.60;87.10;;;;;;5041864;28;20438;-83
2022/08/24 11:43:23;;;;;;;1.83;1.73;;;26.50;87.70;;;;;;5042753;28;20436;-82
2022/08/24 11:46:08;;;;;;;1.53;1.47;;;26.40;89.10;;;;;;5042955;28;20414;-83
2022/08/24 11:49:02;;;;;;;1.50;1.50;;;26.40;89.40;;;;;;5042310;28;20413;-82
2022/08/24 11:51:43;;;;;;;6.70;1.83;;;26.50;89.30;;;;;;5042699;28;20421;-83
2022/08/24 11:54:36;;;;;;;2.30;1.40;;;26.70;88.90;;;;;;5042289;28;20398;-83
2022/08/24 11:57:05;;;;;;;1.43;1.23;;;26.90;88.90;;;;;;5042048;28;21006;-82
2022/08/24 11:59:53;;;;;;;1.87;1.50;;;26.90;87.80;;;;;;5041821;28;20433;-83
2022/08/24 12:02:43;;;;;;;2.97;2.57;;;26.90;88.40;;;;;;5042174;28;20407;-83
2022/08/24 12:05:27;;;;;;;2.57;1.60;;;26.80;86.70;;;;;;5042782;28;20892;-82
2022/08/24 12:08:12;;;;;;;1.53;1.30;;;26.90;86.60;;;;;;5042145;28;20399;-82
2022/08/24 12:10:43;;;;;;;3.07;2.40;;;27.00;86.40;;;;;;5042101;28;20462;-82
2022/08/24 12:13:15;;;;;;;4.90;1.90;;;27.20;88.70;;;;;;5041672;28;20464;-82
2022/08/24 12:15:47;;;;;;;3.90;1.40;;;27.30;87.50;;;;;;5042198;28;20426;-82
2022/08/24 12:18:48;;;;;;;2.20;2.00;;;27.50;87.40;;;;;;5059891;28;20417;-82
2022/08/24 12:21:17;;;;;;;2.53;1.77;;;27.60;86.20;;;;;;5041513;28;20418;-83
2022/08/24 12:23:49;;;;;;;4.03;2.03;;;27.50;85.40;;;;;;5042579;28;20564;-82
2022/08/24 12:26:25;;;;;;;1.83;1.70;;;27.50;86.40;;;;;;5042244;28;20435;-83
2022/08/24 12:29:05;;;;;;;2.20;1.40;;;27.50;85.90;;;;;;5042062;28;20413;-83
2022/08/24 12:31:49;;;;;;;1.70;1.57;;;27.60;86.50;;;;;;5042589;28;20418;-83
2022/08/24 12:34:52;;;;;;;3.90;1.97;;;27.80;88.40;;;;;;5041393;28;20406;-82
2022/08/24 12:37:21;;;;;;;8.60;2.03;;;27.90;86.70;;;;;;5041978;28;20476;-82
2022/08/24 12:39:56;;;;;;;1.50;1.23;;;28.10;86.10;;;;;;5041576;28;20429;-82
2022/08/24 12:42:32;;;;;;;4.50;2.60;;;28.10;83.30;;;;;;5041548;28;20406;-82
2022/08/24 12:45:02;;;;;;;2.80;1.77;;;28.20;85.50;;;;;;5041458;28;20457;-82
2022/08/24 12:48:05;;;;;;;1.43;1.37;;;28.30;85.40;;;;;;5041363;28;20430;-83
2022/08/24 12:50:59;;;;;;;2.17;1.93;;;28.50;84.10;;;;;;5041768;28;20430;-83
2022/08/24 12:53:45;;;;;;;3.23;1.77;;;28.70;84.00;;;;;;5041916;28;20748;-83
2022/08/24 12:56:46;;;;;;;1.63;1.30;;;28.90;83.90;;;;;;5041309;28;20771;-83
2022/08/24 12:59:19;;;;;;;2.10;1.80;;;29.10;84.30;;;;;;5041506;28;20430;-82
2022/08/24 13:01:55;;;;;;;1.93;1.90;;;29.20;82.90;;;;;;5041125;28;20938;-83
2022/08/24 13:04:27;;;;;;;1.43;1.43;;;29.30;83.70;;;;;;5041936;28;21013;-83
2022/08/24 13:07:29;;;;;;;5.83;1.60;;;29.40;82.10;;;;;;5040851;28;20456;-83
2022/08/24 13:09:54;;;;;;;8.13;3.40;;;29.40;81.40;;;;;;5039753;28;20946;-83
2022/08/24 13:12:41;;;;;;;6.10;1.60;;;29.20;81.70;;;;;;5041017;28;20410;-83
2022/08/24 13:15:22;;;;;;;4.73;1.57;;;28.90;82.30;;;;;;5041259;28;20225;-83
2022/08/24 13:17:50;;;;;;;2.23;2.03;;;28.60;84.10;;;;;;5058857;28;20899;-83
2022/08/24 13:20:29;;;;;;;2.20;1.53;;;28.60;83.10;;;;;;5040126;28;20883;-83
2022/08/24 13:23:09;;;;;;;1.40;1.30;;;28.60;84.40;;;;;;5040579;28;20923;-82
2022/08/24 13:25:51;;;;;;;4.00;2.10;;;28.80;84.50;;;;;;5041348;28;20454;-83
2022/08/24 13:28:19;;;;;;;1.53;1.47;;;29.10;83.20;;;;;;5058499;28;20425;-82
2022/08/24 13:31:11;;;;;;;2.10;1.50;;;29.30;81.60;;;;;;5040230;28;20430;-82
2022/08/24 13:33:45;;;;;;;2.60;1.80;;;29.50;82.00;;;;;;5040485;28;20422;-82